• Join FlightAware (Why Join?)
  • Login
  • US Flag 
06:26AM EDT


 

Airport Tracker/Info


-or-


 

Live Flight TrackerFlight Track Log ✈ OPT332 ✈ 05-Nov-2013 ✈ KLAS - KMCC

Flight Track Log - Related Links

Times and Time Zones

All times are in EST time to prevent confusion due to time zone crossing. See the OPT332 flight status page for this flight to view local times or setup timezone preferences in your user account.

Time Position Orientation Groundspeed Altitude Reporting Facility
EST Latitude Longitude Course Direction KTS MPH feet Rate Location/Type
11:41AM 36.0972 -115.1558 288° West 137 158 3,600  Level Los Angeles Center
11:42AM 36.1100 -115.2050 288° West 196 226 7,600 3,360 Climbing Los Angeles Center
11:42AM 36.1169 -115.2053 358° North 205 236 7,200 4,140 Descending Los Angeles Center
11:43AM 36.0958 -115.2814 251° West 217 250 12,200 5,040 Climbing Los Angeles Center
11:43AM 36.0933 -115.2875 243° Southwest 228 262 12,500 3,240 Climbing Los Angeles Center
11:44AM 36.0517 -115.3572 234° Southwest 266 306 15,600 3,000 Climbing Los Angeles Center
11:44AM 36.0497 -115.3656 254° West 268 308 15,900 2,700 Climbing Los Angeles Center
11:45AM 36.0289 -115.4444 252° West 274 315 18,400 1,800 Climbing Los Angeles Center
11:46AM 35.9964 -115.5733 253° West 352 405 19,500 2,220 Climbing Los Angeles Center
11:47AM 35.9828 -115.6969 262° West 364 419 23,000 3,360 Climbing Los Angeles Center
11:48AM 36.0322 -115.7869 304° West 322 371 26,500 3,000 Climbing Los Angeles Center
11:49AM 36.0806 -115.8733 305° West 308 354 29,300 3,120 Climbing Los Angeles Center
11:50AM 36.1258 -115.9553 304° West 293 337 33,000 2,460 Climbing Los Angeles Center
11:51AM 36.1867 -116.0114 323° Northwest 280 322 34,400 1,380 Climbing Los Angeles Center
11:52AM 36.2503 -116.0708 323° Northwest 283 326 35,900 1,620 Climbing Los Angeles Center
11:53AM 36.3306 -116.1478 322° Northwest 302 348 37,800 1,740 Climbing Los Angeles Center
11:54AM 36.3964 -116.2106 322° Northwest 300 345 39,600 1,200 Climbing Los Angeles Center
11:55AM 36.4558 -116.2650 324° Northwest 293 337 40,300 720 Climbing Los Angeles Center
11:57AM 36.5242 -116.3297 323° Northwest 302 348 41,100 960 Climbing Los Angeles Center
11:58AM 36.5744 -116.4256 303° West 308 354 42,400 900 Climbing Los Angeles Center
11:59AM 36.6181 -116.5175 301° West 305 351 43,000 240 Climbing Los Angeles Center
12:00PM 36.6714 -116.6356 299° West 318 366 43,000  Level Los Angeles Center
12:01PM 36.7181 -116.7406 299° West 335 386 43,000  Level Los Angeles Center
12:02PM 36.7661 -116.8478 299° West 347 399 43,000  Level Los Angeles Center
12:03PM 36.8153 -116.9586 299° West 357 411 43,000  Level Los Angeles Center
12:04PM 36.8658 -117.0711 299° West 365 420 43,000  Level Los Angeles Center
12:05PM 36.9164 -117.1864 299° West 372 428 43,000  Level Los Angeles Center
12:06PM 36.9672 -117.3017 299° West 375 432 43,000  Level Los Angeles Center
12:07PM 37.0186 -117.4167 299° West 377 434 43,000  Level Los Angeles Center
12:08PM 37.0792 -117.5558 299° West 378 435 43,000  Level Los Angeles Center
12:09PM 37.1294 -117.6686 299° West 374 430 43,000  Level Los Angeles Center
12:10PM 37.1789 -117.7806 299° West 371 427 43,000  Level Los Angeles Center
12:11PM 37.2269 -117.8922 298° West 366 421 43,000 -540 Level Los Angeles Center
12:12PM 37.2756 -118.0028 299° West 362 417 41,900 -1,260 Descending Los Angeles Center
12:13PM 37.3258 -118.1153 299° West 365 420 40,400 -1,500 Descending Los Angeles Center
12:14PM 37.3725 -118.2231 299° West 362 417 38,900 -1,620 Descending Los Angeles Center
12:15PM 37.4308 -118.3528 300° West 360 414 37,100 -1,620 Descending Los Angeles Center
12:16PM 37.4836 -118.4769 298° West 376 433 35,600 -1,500 Descending Los Angeles Center
12:17PM 37.5333 -118.5997 297° West 383 441 34,100 -1,500 Descending Los Angeles Center
12:18PM 37.5753 -118.7011 298° West 339 390 32,600 -1,500 Descending Los Angeles Center
12:19PM 37.6189 -118.8094 297° West 342 394 31,100 -1,140 Descending Los Angeles Center
12:21PM 37.6881 -118.9758 298° West 368 423 30,000 -480 Descending Oakland Center
12:22PM 37.7358 -119.0903 298° West 369 425 30,000  Level Oakland Center
12:23PM 37.7822 -119.2019 298° West 362 417 30,000 -360 Level Oakland Center
12:24PM 37.8297 -119.3131 298° West 360 414 29,300 -1,080 Descending Oakland Center
12:25PM 37.8744 -119.4256 297° West 358 412 27,800 -1,500 Descending Oakland Center
12:26PM 37.9206 -119.5342 298° West 353 406 26,300 -1,500 Descending Oakland Center
12:27PM 37.9661 -119.6478 297° West 358 412 24,800 -1,500 Descending Oakland Center
12:28PM 38.0131 -119.7614 298° West 363 418 23,300 -1,500 Descending Oakland Center
12:29PM 38.0600 -119.8742 298° West 362 417 21,800 -1,680 Descending Oakland Center
12:30PM 38.1128 -120.0061 297° West 350 403 20,000 -1,680 Descending Oakland Center
12:31PM 38.1556 -120.1119 297° West 339 390 18,400 -1,440 Descending Oakland Center
12:32PM 38.1986 -120.2169 298° West 335 386 17,100 -1,380 Descending Oakland Center
12:33PM 38.2400 -120.3231 296° West 335 386 15,600 -1,500 Descending Oakland Center
12:34PM 38.2828 -120.4267 298° West 331 381 14,100 -1,680 Descending Oakland Center
12:35PM 38.3225 -120.5242 297° West 315 362 12,300 -1,860 Descending Oakland Center
12:36PM 38.3581 -120.6142 297° West 288 331 10,300 -1,980 Descending Oakland Center
12:37PM 38.3925 -120.7017 297° West 277 319 8,300 -1,140 Descending Oakland Center
12:38PM 38.4267 -120.7864 297° West 272 313 8,000 -180 Descending Oakland Center
12:39PM 38.4597 -120.8714 296° West 268 308 8,000 -720 Level Oakland Center
12:40PM 38.4983 -120.9689 297° West 258 297 6,600 -1,440 Descending Oakland Center
12:41PM 38.5294 -121.0486 297° West 253 291 5,100 -1,320 Descending Oakland Center
12:42PM 38.5603 -121.1269 297° West 250 288 4,000 -600 Descending Oakland Center
12:43PM 38.5869 -121.1947 297° West 232 267 4,000 -180 Level Oakland Center
12:44PM 38.6156 -121.2711 296° West 219 252 3,700 -300 Descending Oakland Center